createdAt,value
2018-05-25T00:00:50.304Z,57.86
2018-05-25T00:03:19.525Z,57.40
2018-05-25T00:05:48.892Z,56.81
2018-05-25T00:08:18.109Z,56.88
2018-05-25T00:10:47.449Z,56.72
2018-05-25T00:13:16.635Z,56.92
2018-05-25T00:15:45.747Z,57.79
2018-05-25T00:18:15.035Z,57.51
2018-05-25T00:20:44.485Z,57.48
2018-05-25T00:23:13.720Z,57.60
2018-05-25T00:25:42.939Z,58.54
2018-05-25T00:28:14.945Z,58.08
2018-05-25T00:30:44.336Z,58.24
2018-05-25T00:33:13.490Z,59.01
2018-05-25T00:35:42.949Z,58.91
2018-05-25T00:38:12.999Z,59.30
2018-05-25T00:40:42.262Z,59.05
2018-05-25T00:43:11.547Z,59.75
2018-05-25T00:45:40.937Z,59.81
2018-05-25T00:48:10.116Z,59.54
2018-05-25T00:50:39.525Z,59.72
2018-05-25T00:53:08.916Z,59.98
2018-05-25T00:55:41.358Z,60.37
2018-05-25T00:58:10.600Z,60.56
2018-05-25T01:00:39.922Z,60.20
2018-05-25T01:03:09.201Z,60.92
2018-05-25T01:05:38.483Z,60.50
2018-05-25T01:08:07.480Z,60.58
2018-05-25T01:10:36.696Z,60.70
2018-05-25T01:13:06.074Z,61.05
2018-05-25T01:15:35.301Z,61.30
2018-05-25T01:18:04.588Z,61.17
2018-05-25T01:20:33.826Z,61.78
2018-05-25T01:23:03.077Z,61.48
2018-05-25T01:25:32.510Z,61.60
2018-05-25T01:28:01.681Z,61.87
2018-05-25T01:30:31.004Z,61.63
2018-05-25T01:33:00.197Z,62.04
2018-05-25T01:35:29.515Z,61.79
2018-05-25T01:37:58.562Z,62.24
2018-05-25T01:40:27.889Z,61.83
2018-05-25T01:42:57.176Z,61.75
2018-05-25T01:45:26.281Z,62.16
2018-05-25T01:47:55.581Z,61.79
2018-05-25T01:50:24.906Z,62.44
2018-05-25T01:52:53.963Z,63.04
2018-05-25T01:55:23.294Z,62.99
2018-05-25T01:57:52.555Z,63.04
2018-05-25T02:00:21.685Z,64.36
2018-05-25T02:02:50.851Z,63.75
2018-05-25T02:05:20.031Z,63.78
2018-05-25T02:07:49.344Z,64.12
2018-05-25T02:10:19.027Z,63.63
2018-05-25T02:12:48.243Z,63.47
2018-05-25T02:15:17.481Z,63.31
2018-05-25T02:17:46.753Z,63.70
2018-05-25T02:20:15.991Z,63.48
2018-05-25T02:22:45.235Z,63.70
2018-05-25T02:25:14.415Z,63.74
2018-05-25T02:27:43.732Z,64.41
2018-05-25T02:30:13.073Z,64.12
2018-05-25T02:32:42.144Z,63.37
2018-05-25T02:35:11.394Z,64.74
2018-05-25T02:37:40.737Z,63.80
2018-05-25T02:40:10.084Z,64.21
2018-05-25T02:42:39.117Z,64.21
2018-05-25T02:45:08.406Z,64.53
2018-05-25T02:47:37.753Z,64.96
2018-05-25T02:50:07.019Z,64.77
2018-05-25T02:52:36.328Z,65.74
2018-05-25T02:55:05.677Z,65.57
2018-05-25T02:57:34.756Z,65.33
2018-05-25T03:00:04.103Z,65.29
2018-05-25T03:02:33.565Z,66.03
2018-05-25T03:05:02.619Z,64.89
2018-05-25T03:07:31.973Z,65.23
2018-05-25T03:10:01.229Z,65.87
2018-05-25T03:12:30.579Z,65.22
2018-05-25T03:14:59.831Z,64.80
2018-05-25T03:17:29.195Z,64.88
2018-05-25T03:19:58.443Z,65.64
2018-05-25T03:22:27.799Z,66.60
2018-05-25T03:24:57.015Z,67.00
2018-05-25T03:27:26.770Z,66.55
2018-05-25T03:29:55.877Z,67.09
2018-05-25T03:32:25.181Z,66.33
2018-05-25T03:34:54.427Z,67.31
2018-05-25T03:37:23.689Z,67.32
2018-05-25T03:39:52.927Z,66.17
2018-05-25T03:42:22.393Z,66.61
2018-05-25T03:44:51.629Z,66.45
2018-05-25T03:47:20.877Z,67.07
2018-05-25T03:49:50.049Z,64.92
2018-05-25T03:52:19.405Z,64.60
2018-05-25T03:54:48.560Z,65.80
2018-05-25T03:57:17.974Z,64.91
2018-05-25T04:04:11.610Z,64.33
2018-05-25T04:06:40.259Z,64.30
2018-05-25T04:09:08.902Z,63.94
2018-05-25T04:11:37.449Z,63.47
2018-05-25T04:14:05.930Z,63.69
2018-05-25T04:16:34.562Z,63.49
2018-05-25T04:19:03.007Z,63.46
2018-05-25T04:21:31.532Z,63.53
2018-05-25T04:24:00.202Z,62.82
2018-05-25T04:26:28.920Z,62.95
2018-05-25T04:28:57.351Z,62.49
2018-05-25T04:31:26.285Z,62.13
2018-05-25T04:33:54.922Z,61.97
2018-05-25T04:36:23.875Z,62.00
2018-05-25T04:38:52.491Z,62.50
2018-05-25T04:41:21.075Z,61.79
2018-05-25T04:43:49.483Z,62.62
2018-05-25T04:46:18.039Z,61.31
2018-05-25T04:48:46.632Z,61.37
2018-05-25T04:51:15.215Z,59.72
2018-05-25T04:53:43.791Z,60.61
2018-05-25T04:56:12.520Z,59.75
2018-05-25T04:58:41.179Z,60.24
2018-05-25T05:01:09.666Z,60.90
2018-05-25T05:03:38.122Z,59.91
2018-05-25T05:06:06.630Z,60.71
2018-05-25T05:08:35.048Z,60.69
2018-05-25T05:11:03.615Z,59.84
2018-05-25T05:13:32.074Z,59.43
2018-05-25T05:16:00.782Z,58.80
2018-05-25T05:18:29.454Z,58.88
2018-05-25T05:20:58.203Z,57.90
2018-05-25T05:23:26.684Z,59.72
2018-05-25T05:25:55.544Z,58.88
2018-05-25T05:28:24.163Z,57.86
2018-05-25T05:30:52.638Z,57.78
2018-05-25T05:33:21.072Z,57.80
2018-05-25T05:35:49.615Z,57.23
2018-05-25T05:38:18.207Z,57.35
2018-05-25T05:40:46.711Z,56.44
2018-05-25T05:43:15.596Z,57.23
2018-05-25T05:45:44.178Z,56.22
2018-05-25T05:48:12.725Z,55.97
2018-05-25T05:50:41.236Z,55.61
2018-05-25T05:53:09.670Z,55.54
2018-05-25T05:55:38.391Z,54.74
2018-05-25T05:58:06.988Z,55.21
2018-05-25T06:00:35.487Z,55.87
2018-05-25T06:05:38.642Z,55.81
2018-05-25T06:08:07.266Z,54.50
2018-05-25T06:10:36.087Z,53.88
2018-05-25T06:13:04.535Z,54.21
2018-05-25T06:15:33.067Z,53.18
2018-05-25T06:18:01.692Z,53.45
2018-05-25T06:20:32.213Z,53.23
2018-05-25T06:23:01.135Z,52.76
2018-05-25T06:25:30.087Z,52.84
2018-05-25T06:28:02.448Z,53.71
2018-05-25T06:30:32.415Z,53.13
2018-05-25T06:33:01.677Z,52.46
2018-05-25T06:35:30.507Z,52.54
2018-05-25T06:38:05.732Z,51.18
2018-05-25T06:40:34.211Z,51.76
2018-05-25T06:43:02.999Z,51.02
2018-05-25T06:45:33.099Z,51.72
2018-05-25T06:48:01.739Z,51.70
2018-05-25T06:50:30.636Z,51.33
2018-05-25T06:52:59.084Z,51.84
2018-05-25T06:55:27.572Z,50.75
2018-05-25T06:57:56.454Z,50.34
2018-05-25T07:00:25.026Z,50.41
2018-05-25T07:02:53.794Z,49.41
2018-05-25T07:05:22.861Z,49.06
2018-05-25T07:07:52.319Z,50.31
2018-05-25T07:10:22.186Z,49.88
2018-05-25T07:12:51.403Z,49.77
2018-05-25T07:15:20.409Z,49.33
2018-05-25T07:17:49.358Z,49.45
2018-05-25T07:20:18.609Z,49.40
2018-05-25T07:22:47.319Z,49.18
2018-05-25T07:25:32.441Z,48.61
2018-05-25T07:28:01.256Z,47.66
2018-05-25T07:30:30.648Z,47.88
2018-05-25T07:33:00.036Z,48.31
2018-05-25T07:35:28.880Z,47.82
2018-05-25T07:38:01.742Z,47.91
2018-05-25T07:40:30.649Z,47.64
2018-05-25T07:42:59.636Z,46.72
2018-05-25T07:45:28.580Z,48.29
2018-05-25T07:47:57.195Z,46.55
2018-05-25T07:53:05.159Z,44.84
2018-05-25T07:55:33.901Z,44.79
2018-05-25T07:58:02.529Z,45.13
2018-05-25T08:00:31.208Z,45.71
2018-05-25T08:03:00.379Z,45.79
2018-05-25T08:05:30.223Z,45.87
2018-05-25T08:07:59.903Z,45.85
2018-05-25T08:10:28.754Z,45.46
2018-05-25T08:12:58.205Z,44.06
2018-05-25T08:15:28.226Z,45.15
2018-05-25T08:17:57.364Z,43.51
2018-05-25T08:20:26.244Z,43.61
2018-05-25T08:22:56.622Z,43.19
2018-05-25T08:25:28.174Z,44.58
2018-05-25T08:28:07.363Z,44.18
2018-05-25T08:30:36.228Z,43.95
2018-05-25T08:33:05.141Z,43.07
2018-05-25T08:35:35.296Z,43.28
2018-05-25T08:38:04.500Z,42.60
2018-05-25T08:40:33.489Z,43.03
2018-05-25T08:43:02.294Z,43.21
2018-05-25T08:45:31.016Z,43.82
2018-05-25T08:47:59.836Z,43.61
2018-05-25T08:50:28.948Z,42.60
2018-05-25T08:52:57.635Z,43.47
2018-05-25T08:55:26.629Z,42.75
2018-05-25T08:57:55.468Z,42.22
2018-05-25T09:00:23.975Z,42.62
2018-05-25T09:02:52.687Z,42.88
2018-05-25T09:05:21.420Z,41.32
2018-05-25T09:07:50.037Z,42.56
2018-05-25T09:10:18.961Z,42.39
2018-05-25T09:12:47.712Z,42.37
2018-05-25T09:15:16.233Z,41.31
2018-05-25T09:17:44.927Z,40.81
2018-05-25T09:20:14.032Z,41.33
2018-05-25T09:22:42.880Z,40.68
2018-05-25T09:25:11.767Z,40.36
2018-05-25T09:27:41.476Z,39.39
2018-05-25T09:30:12.841Z,38.51
2018-05-25T09:32:43.358Z,40.02
2018-05-25T09:35:12.116Z,39.19
2018-05-25T09:37:40.990Z,39.47
2018-05-25T09:40:09.580Z,37.92
2018-05-25T09:42:38.232Z,38.19
2018-05-25T09:45:07.094Z,37.81
2018-05-25T09:47:35.789Z,37.90
2018-05-25T09:50:05.317Z,36.70
2018-05-25T09:52:33.902Z,36.85
2018-05-25T09:55:02.575Z,36.28
2018-05-25T09:57:31.535Z,38.15
2018-05-25T10:00:00.563Z,38.12
2018-05-25T10:02:29.085Z,35.39
2018-05-25T10:04:57.553Z,35.50
2018-05-25T10:07:26.286Z,35.10
2018-05-25T10:09:55.523Z,34.63
2018-05-25T10:12:24.236Z,34.06
2018-05-25T10:14:52.879Z,34.77
2018-05-25T10:17:22.791Z,35.27
2018-05-25T10:19:51.324Z,35.00
2018-05-25T10:22:20.086Z,35.13
2018-05-25T10:24:49.169Z,33.57
2018-05-25T10:27:18.270Z,33.38
2018-05-25T10:29:46.882Z,33.00
2018-05-25T10:32:15.562Z,33.08
2018-05-25T10:34:44.063Z,32.90
2018-05-25T10:37:13.063Z,33.10
2018-05-25T10:39:41.772Z,31.58
2018-05-25T10:42:10.283Z,31.75
2018-05-25T10:44:38.764Z,32.17
2018-05-25T10:47:08.056Z,30.12
2018-05-25T10:49:36.531Z,32.00
2018-05-25T10:52:05.059Z,33.83
2018-05-25T10:54:33.515Z,31.56
2018-05-25T10:57:02.163Z,31.27
2018-05-25T10:59:30.864Z,30.31
2018-05-25T11:01:59.629Z,30.04
2018-05-25T11:04:28.223Z,29.21
2018-05-25T11:06:56.844Z,28.82
2018-05-25T11:09:25.612Z,27.92
2018-05-25T11:11:54.173Z,27.62
2018-05-25T11:14:22.973Z,27.85
2018-05-25T11:16:51.847Z,27.28
2018-05-25T11:19:20.455Z,27.12
2018-05-25T11:21:49.144Z,25.81
2018-05-25T11:24:17.891Z,25.44
2018-05-25T11:26:46.928Z,26.29
2018-05-25T11:29:15.401Z,25.34
2018-05-25T11:31:44.219Z,25.38
2018-05-25T11:34:13.771Z,27.41
2018-05-25T11:36:42.774Z,27.21
2018-05-25T11:39:12.221Z,25.41
2018-05-25T11:41:41.203Z,25.90
2018-05-25T11:44:10.120Z,25.46
2018-05-25T11:46:39.377Z,25.52
2018-05-25T11:49:07.942Z,24.83
2018-05-25T11:51:37.828Z,26.51
2018-05-25T11:54:06.839Z,24.95
2018-05-25T11:56:35.538Z,25.95
2018-05-25T11:59:04.192Z,26.64
2018-05-25T12:01:33.164Z,29.77
2018-05-25T12:04:02.768Z,30.02
2018-05-25T12:06:31.449Z,30.97
2018-05-25T12:08:59.915Z,30.34
2018-05-25T12:11:28.706Z,27.42
2018-05-25T12:13:57.342Z,26.64
2018-05-25T12:16:26.087Z,24.11
2018-05-25T12:18:54.542Z,24.32
2018-05-25T12:21:23.581Z,25.74
2018-05-25T12:23:52.993Z,25.55
2018-05-25T12:26:22.819Z,25.11
2018-05-25T12:28:51.438Z,27.92
2018-05-25T12:31:20.361Z,29.91
2018-05-25T12:33:48.960Z,31.16
2018-05-25T12:36:18.884Z,28.04
2018-05-25T12:38:47.455Z,27.21
2018-05-25T12:41:16.093Z,28.12
2018-05-25T12:43:44.683Z,31.06
2018-05-25T12:46:13.156Z,30.22
2018-05-25T12:48:41.713Z,31.04
2018-05-25T12:51:10.393Z,30.96
2018-05-25T12:53:40.870Z,27.81
2018-05-25T12:56:09.802Z,26.37
2018-05-25T12:58:38.949Z,27.60
2018-05-25T13:01:07.951Z,26.86
2018-05-25T13:03:36.416Z,26.41
2018-05-25T13:06:04.987Z,23.71
2018-05-25T13:08:33.502Z,22.81
2018-05-25T13:11:02.290Z,25.68
2018-05-25T13:13:31.179Z,28.97
2018-05-25T13:16:06.094Z,29.76
2018-05-25T13:18:36.095Z,30.60
2018-05-25T13:21:04.692Z,29.54
2018-05-25T13:23:33.182Z,24.84
2018-05-25T13:26:02.472Z,23.00
2018-05-25T13:28:32.032Z,23.86
2018-05-25T13:31:00.630Z,24.55
2018-05-25T13:33:29.323Z,25.45
2018-05-25T13:35:58.373Z,25.72
2018-05-25T13:38:26.918Z,25.90
2018-05-25T13:40:55.474Z,28.36
2018-05-25T13:43:24.508Z,30.03
2018-05-25T13:45:53.314Z,28.83
2018-05-25T13:48:21.819Z,29.89
2018-05-25T13:50:50.333Z,29.46
2018-05-25T13:53:19.641Z,25.17
2018-05-25T13:55:48.279Z,25.36
2018-05-25T13:58:17.049Z,25.55
2018-05-25T14:00:45.607Z,27.20
2018-05-25T14:03:15.852Z,28.80
2018-05-25T14:05:47.916Z,21.25
2018-05-25T14:08:17.515Z,22.63
2018-05-25T14:10:46.048Z,25.22
2018-05-25T14:13:15.003Z,25.59
2018-05-25T14:15:43.747Z,24.17
2018-05-25T14:18:12.314Z,23.45
2018-05-25T14:20:40.917Z,26.30
2018-05-25T14:23:10.694Z,27.93
2018-05-25T14:25:39.253Z,26.37
2018-05-25T14:28:07.759Z,27.83
2018-05-25T14:30:36.648Z,24.24
2018-05-25T14:33:05.880Z,24.79
2018-05-25T14:35:35.221Z,25.46
2018-05-25T14:38:03.784Z,24.99
2018-05-25T14:40:32.277Z,24.66
2018-05-25T14:43:00.910Z,24.44
2018-05-25T14:45:29.536Z,26.91
2018-05-25T14:47:58.281Z,27.87
2018-05-25T14:50:27.061Z,27.64
2018-05-25T14:52:55.722Z,30.48
2018-05-25T14:55:24.397Z,28.98
2018-05-25T14:57:53.614Z,31.46
2018-05-25T15:00:23.616Z,30.16
2018-05-25T15:02:52.311Z,30.36
2018-05-25T15:05:20.830Z,30.44
2018-05-25T15:07:49.406Z,30.05
2018-05-25T15:10:18.775Z,30.37
2018-05-25T15:12:48.333Z,29.98
2018-05-25T15:15:17.586Z,30.19
2018-05-25T15:17:47.326Z,30.79
2018-05-25T15:20:16.003Z,30.68
2018-05-25T15:22:44.785Z,31.51
2018-05-25T15:25:14.919Z,31.91
2018-05-25T15:27:43.763Z,31.60
2018-05-25T15:30:13.134Z,30.45
2018-05-25T15:32:41.919Z,31.63
2018-05-25T15:35:10.351Z,30.74
2018-05-25T15:37:38.923Z,30.98
2018-05-25T15:40:07.752Z,30.35
2018-05-25T15:42:36.459Z,30.05
2018-05-25T15:45:04.975Z,26.52
2018-05-25T15:47:33.537Z,27.82
2018-05-25T15:50:02.455Z,29.42
2018-05-25T15:52:31.196Z,28.55
2018-05-25T15:54:59.660Z,25.26
2018-05-25T15:57:28.403Z,22.62
2018-05-25T15:59:57.837Z,23.49
2018-05-25T16:02:26.518Z,22.83
2018-05-25T16:04:55.045Z,22.13
2018-05-25T16:07:23.639Z,23.06
2018-05-25T16:09:53.175Z,23.30
2018-05-25T16:12:21.725Z,25.80
2018-05-25T16:14:50.857Z,28.59
2018-05-25T16:17:21.603Z,29.27
2018-05-25T16:19:50.312Z,29.18
2018-05-25T16:22:25.495Z,26.04
2018-05-25T16:24:55.667Z,25.57
2018-05-25T16:27:29.360Z,24.11
2018-05-25T16:29:59.015Z,25.11
2018-05-25T16:32:28.836Z,24.97
2018-05-25T16:35:01.675Z,28.43
2018-05-25T16:37:31.660Z,30.29
2018-05-25T16:40:01.242Z,30.84
2018-05-25T16:42:29.900Z,30.87
2018-05-25T16:44:59.084Z,31.23
2018-05-25T16:47:27.932Z,31.46
2018-05-25T16:49:57.295Z,32.12
2018-05-25T16:52:26.147Z,32.42
2018-05-25T16:54:55.171Z,32.51
2018-05-25T16:57:24.068Z,33.13
2018-05-25T16:59:53.138Z,33.69
2018-05-25T17:02:22.122Z,34.21
2018-05-25T17:04:52.696Z,34.15
2018-05-25T17:07:24.270Z,35.01
2018-05-25T17:09:53.258Z,34.59
2018-05-25T17:12:33.833Z,34.43
2018-05-25T17:15:05.815Z,35.02
2018-05-25T17:17:36.714Z,35.70
2018-05-25T17:20:06.269Z,34.70
2018-05-25T17:22:35.124Z,35.17
2018-05-25T17:25:06.690Z,35.16
2018-05-25T17:27:36.421Z,34.99
2018-05-25T17:30:05.396Z,34.96
2018-05-25T17:32:37.803Z,35.95
2018-05-25T17:35:07.395Z,35.56
2018-05-25T17:37:36.762Z,36.07
2018-05-25T17:40:06.359Z,35.97
2018-05-25T17:42:38.371Z,35.34
2018-05-25T17:45:08.411Z,35.55
2018-05-25T17:47:41.275Z,35.95
2018-05-25T17:50:13.009Z,36.68
2018-05-25T17:52:42.685Z,37.13
2018-05-25T17:55:13.576Z,38.08
2018-05-25T17:57:42.406Z,38.44
2018-05-25T18:00:14.029Z,38.54
2018-05-25T18:02:43.161Z,38.95
2018-05-25T18:05:13.290Z,39.21
2018-05-25T18:07:42.121Z,39.80
2018-05-25T18:10:10.752Z,39.78
2018-05-25T18:12:39.869Z,39.50
2018-05-25T18:15:08.624Z,39.91
2018-05-25T18:17:42.178Z,40.12
2018-05-25T18:20:13.218Z,39.87
2018-05-25T18:22:45.177Z,40.63
2018-05-25T18:25:14.372Z,40.41
2018-05-25T18:27:43.864Z,40.59
2018-05-25T18:30:14.211Z,41.06
2018-05-25T18:32:48.346Z,41.68
2018-05-25T18:35:18.150Z,41.29
2018-05-25T18:37:47.300Z,41.22
2018-05-25T18:40:20.541Z,40.81
2018-05-25T18:42:51.668Z,41.21
2018-05-25T18:45:21.511Z,41.47
2018-05-25T18:47:51.016Z,41.77
2018-05-25T18:50:20.165Z,43.30
2018-05-25T18:52:50.167Z,43.15
2018-05-25T18:55:20.957Z,42.03
2018-05-25T18:57:51.311Z,43.42
2018-05-25T19:00:30.969Z,44.26
2018-05-25T19:03:00.527Z,42.95
2018-05-25T19:05:30.441Z,43.72
2018-05-25T19:08:00.177Z,43.10
2018-05-25T19:10:48.993Z,42.96
2018-05-25T19:13:19.749Z,43.46
2018-05-25T19:15:50.968Z,43.26
2018-05-25T19:18:20.750Z,43.60
2018-05-25T19:20:51.119Z,43.38
2018-05-25T19:23:20.291Z,44.03
2018-05-25T19:25:50.457Z,43.90
2018-05-25T19:28:19.032Z,44.18
2018-05-25T19:30:48.192Z,44.64
2018-05-25T19:33:17.021Z,45.37
2018-05-25T19:35:51.180Z,44.32
2018-05-25T19:38:23.052Z,44.33
2018-05-25T19:40:52.252Z,44.42
2018-05-25T19:43:22.851Z,45.23
2018-05-25T19:45:53.139Z,44.80
2018-05-25T19:48:22.220Z,45.01
2018-05-25T19:50:52.533Z,44.74
2018-05-25T19:53:21.497Z,45.06
2018-05-25T19:55:51.367Z,45.64
2018-05-25T19:58:20.556Z,45.16
2018-05-25T20:00:49.955Z,45.49
2018-05-25T20:03:23.375Z,45.95
2018-05-25T20:05:56.443Z,45.70
2018-05-25T20:08:26.771Z,45.73
2018-05-25T20:10:55.846Z,45.70
2018-05-25T20:13:26.947Z,45.98
2018-05-25T20:15:55.970Z,46.05
2018-05-25T20:18:26.225Z,46.38
2018-05-25T20:20:56.638Z,46.63
2018-05-25T20:23:27.296Z,46.86
2018-05-25T20:25:56.839Z,46.68
2018-05-25T20:28:28.614Z,46.91
2018-05-25T20:30:59.905Z,47.08
2018-05-25T20:33:30.190Z,47.00
2018-05-25T20:35:59.885Z,46.96
2018-05-25T20:38:31.947Z,47.82
2018-05-25T20:41:03.310Z,47.85
2018-05-25T20:43:37.111Z,48.35
2018-05-25T20:46:09.064Z,47.87
2018-05-25T20:48:38.157Z,48.10
2018-05-25T20:51:09.337Z,48.39
2018-05-25T20:53:41.982Z,48.51
2018-05-25T20:56:14.755Z,48.70
2018-05-25T20:58:43.936Z,48.71
2018-05-25T21:01:14.812Z,49.16
2018-05-25T21:03:50.891Z,49.98
2018-05-25T21:06:22.020Z,49.95
2018-05-25T21:08:50.660Z,48.90
2018-05-25T21:11:20.232Z,49.37
2018-05-25T21:13:49.477Z,50.06
2018-05-25T21:16:19.326Z,50.52
2018-05-25T21:18:48.546Z,50.07
2018-05-25T21:21:19.501Z,50.47
2018-05-25T21:23:48.756Z,50.75
2018-05-25T21:26:18.079Z,50.35
2018-05-25T21:28:47.413Z,50.01
2018-05-25T21:31:16.820Z,51.66
2018-05-25T21:33:46.299Z,50.35
2018-05-25T21:36:15.135Z,51.69
2018-05-25T21:38:44.420Z,50.65
2018-05-25T21:41:15.363Z,51.89
2018-05-25T21:43:44.779Z,51.97
2018-05-25T21:46:14.465Z,52.42
2018-05-25T21:48:43.807Z,51.96
2018-05-25T21:51:12.916Z,51.71
2018-05-25T21:53:43.806Z,52.12
2018-05-25T21:56:12.855Z,51.81
2018-05-25T21:58:42.227Z,51.98
2018-05-25T22:01:10.772Z,52.92
2018-05-25T22:03:39.901Z,52.04
2018-05-25T22:06:11.187Z,52.21
2018-05-25T22:08:40.191Z,53.32
2018-05-25T22:11:10.215Z,53.06
2018-05-25T22:13:39.316Z,53.65
2018-05-25T22:16:08.289Z,53.27
2018-05-25T22:18:37.102Z,55.66
2018-05-25T22:21:06.784Z,55.63
2018-05-25T22:23:36.492Z,55.04
2018-05-25T22:26:05.074Z,56.08
2018-05-25T22:28:33.702Z,55.63
2018-05-25T22:31:02.700Z,57.85
2018-05-25T22:33:32.469Z,56.89
2018-05-25T22:36:06.446Z,56.40
2018-05-25T22:38:36.120Z,57.08
2018-05-25T22:41:04.638Z,57.12
2018-05-25T22:43:44.127Z,55.67
2018-05-25T22:46:25.441Z,55.81
2018-05-25T22:49:05.432Z,56.34
2018-05-25T22:51:45.126Z,56.79
2018-05-25T22:54:52.090Z,56.76
2018-05-25T22:57:20.739Z,57.25
2018-05-25T22:59:49.763Z,57.89
2018-05-25T23:02:18.335Z,58.69
2018-05-25T23:04:47.107Z,58.63
2018-05-25T23:07:16.926Z,58.61
2018-05-25T23:09:45.368Z,58.42
2018-05-25T23:12:14.843Z,59.68
2018-05-25T23:14:43.483Z,59.78
2018-05-25T23:17:12.488Z,59.67
2018-05-25T23:19:41.867Z,60.25
2018-05-25T23:22:11.834Z,58.93
2018-05-25T23:24:40.293Z,60.22
2018-05-25T23:27:08.827Z,61.09
2018-05-25T23:29:37.469Z,62.01
2018-05-25T23:32:06.238Z,61.32
2018-05-25T23:34:35.459Z,62.94
2018-05-25T23:37:04.790Z,60.96
2018-05-25T23:39:33.481Z,61.28
2018-05-25T23:42:02.043Z,62.22
2018-05-25T23:44:30.478Z,61.53
2018-05-25T23:46:58.975Z,61.74
2018-05-25T23:49:27.403Z,61.77
2018-05-25T23:51:56.683Z,62.52
2018-05-25T23:54:25.308Z,62.96
2018-05-25T23:56:53.863Z,63.29
2018-05-25T23:59:22.519Z,63.86
